sensor_id;sensor_type;location;lat;lon;timestamp;temperature;humidity
7762;DHT22;3925;48.636;9.516;2023-04-06T00:00:23;3.00;93.00
7762;DHT22;3925;48.636;9.516;2023-04-06T00:02:50;3.00;92.90
7762;DHT22;3925;48.636;9.516;2023-04-06T00:05:18;3.10;93.30
7762;DHT22;3925;48.636;9.516;2023-04-06T00:07:45;3.20;92.40
7762;DHT22;3925;48.636;9.516;2023-04-06T00:10:12;3.00;93.50
7762;DHT22;3925;48.636;9.516;2023-04-06T00:12:39;2.90;94.20
7762;DHT22;3925;48.636;9.516;2023-04-06T00:15:07;2.80;95.00
7762;DHT22;3925;48.636;9.516;2023-04-06T00:17:35;2.60;94.60
7762;DHT22;3925;48.636;9.516;2023-04-06T00:20:02;2.40;94.40
7762;DHT22;3925;48.636;9.516;2023-04-06T00:22:29;2.60;94.60
7762;DHT22;3925;48.636;9.516;2023-04-06T00:24:56;2.60;94.20
7762;DHT22;3925;48.636;9.516;2023-04-06T00:27:23;2.40;94.30
7762;DHT22;3925;48.636;9.516;2023-04-06T00:29:50;2.20;94.90
7762;DHT22;3925;48.636;9.516;2023-04-06T00:32:17;2.00;94.90
7762;DHT22;3925;48.636;9.516;2023-04-06T00:34:45;2.30;95.50
7762;DHT22;3925;48.636;9.516;2023-04-06T00:37:12;2.50;95.40
7762;DHT22;3925;48.636;9.516;2023-04-06T00:39:39;2.60;94.80
7762;DHT22;3925;48.636;9.516;2023-04-06T00:42:10;2.50;94.70
7762;DHT22;3925;48.636;9.516;2023-04-06T00:44:39;2.60;95.00
7762;DHT22;3925;48.636;9.516;2023-04-06T00:47:05;2.50;95.20
7762;DHT22;3925;48.636;9.516;2023-04-06T00:49:33;2.40;95.50
7762;DHT22;3925;48.636;9.516;2023-04-06T00:52:01;2.30;95.50
7762;DHT22;3925;48.636;9.516;2023-04-06T00:54:28;2.70;95.00
7762;DHT22;3925;48.636;9.516;2023-04-06T00:56:56;2.80;94.60
7762;DHT22;3925;48.636;9.516;2023-04-06T00:59:23;2.80;94.50
7762;DHT22;3925;48.636;9.516;2023-04-06T01:01:50;2.60;94.20
7762;DHT22;3925;48.636;9.516;2023-04-06T01:04:17;2.20;94.90
7762;DHT22;3925;48.636;9.516;2023-04-06T01:06:44;2.30;95.60
7762;DHT22;3925;48.636;9.516;2023-04-06T01:09:13;2.10;96.20
7762;DHT22;3925;48.636;9.516;2023-04-06T01:11:39;2.00;96.40
7762;DHT22;3925;48.636;9.516;2023-04-06T01:14:07;1.70;96.70
7762;DHT22;3925;48.636;9.516;2023-04-06T01:16:34;1.70;97.20
7762;DHT22;3925;48.636;9.516;2023-04-06T01:19:01;1.80;97.60
7762;DHT22;3925;48.636;9.516;2023-04-06T01:21:28;1.80;97.90
7762;DHT22;3925;48.636;9.516;2023-04-06T01:23:56;1.70;98.20
7762;DHT22;3925;48.636;9.516;2023-04-06T01:26:23;1.70;98.30
7762;DHT22;3925;48.636;9.516;2023-04-06T01:28:50;1.80;98.40
7762;DHT22;3925;48.636;9.516;2023-04-06T01:31:17;1.70;98.50
7762;DHT22;3925;48.636;9.516;2023-04-06T01:33:44;1.80;98.20
7762;DHT22;3925;48.636;9.516;2023-04-06T01:36:12;1.70;98.60
7762;DHT22;3925;48.636;9.516;2023-04-06T01:38:39;1.90;98.20
7762;DHT22;3925;48.636;9.516;2023-04-06T01:41:08;1.80;98.80
7762;DHT22;3925;48.636;9.516;2023-04-06T01:43:36;1.70;99.00
7762;DHT22;3925;48.636;9.516;2023-04-06T01:46:03;1.70;99.10
7762;DHT22;3925;48.636;9.516;2023-04-06T01:48:31;1.80;99.20
7762;DHT22;3925;48.636;9.516;2023-04-06T01:50:58;1.90;98.70
7762;DHT22;3925;48.636;9.516;2023-04-06T01:53:25;1.90;98.40
7762;DHT22;3925;48.636;9.516;2023-04-06T01:55:51;2.10;98.30
7762;DHT22;3925;48.636;9.516;2023-04-06T01:58:20;2.20;97.70
7762;DHT22;3925;48.636;9.516;2023-04-06T02:00:47;2.10;97.90
7762;DHT22;3925;48.636;9.516;2023-04-06T02:03:13;2.10;97.90
7762;DHT22;3925;48.636;9.516;2023-04-06T02:05:41;2.10;98.20
7762;DHT22;3925;48.636;9.516;2023-04-06T02:08:08;2.10;98.00
7762;DHT22;3925;48.636;9.516;2023-04-06T02:10:34;2.20;97.80
7762;DHT22;3925;48.636;9.516;2023-04-06T02:13:01;2.00;98.30
7762;DHT22;3925;48.636;9.516;2023-04-06T02:15:30;1.80;98.80
7762;DHT22;3925;48.636;9.516;2023-04-06T02:17:58;1.70;99.30
7762;DHT22;3925;48.636;9.516;2023-04-06T02:20:26;1.60;99.60
7762;DHT22;3925;48.636;9.516;2023-04-06T02:22:53;1.50;99.90
7762;DHT22;3925;48.636;9.516;2023-04-06T02:25:19;1.50;99.90
7762;DHT22;3925;48.636;9.516;2023-04-06T02:27:46;1.40;99.90
7762;DHT22;3925;48.636;9.516;2023-04-06T02:30:13;1.30;99.90
7762;DHT22;3925;48.636;9.516;2023-04-06T02:32:41;1.20;99.90
7762;DHT22;3925;48.636;9.516;2023-04-06T02:35:08;1.20;99.90
7762;DHT22;3925;48.636;9.516;2023-04-06T02:37:35;1.10;99.90
7762;DHT22;3925;48.636;9.516;2023-04-06T02:40:03;1.10;99.90
7762;DHT22;3925;48.636;9.516;2023-04-06T02:42:31;1.30;99.90
7762;DHT22;3925;48.636;9.516;2023-04-06T02:44:58;1.30;99.90
7762;DHT22;3925;48.636;9.516;2023-04-06T02:47:25;1.50;99.90
7762;DHT22;3925;48.636;9.516;2023-04-06T02:49:54;1.60;99.90
7762;DHT22;3925;48.636;9.516;2023-04-06T02:52:20;1.50;99.90
7762;DHT22;3925;48.636;9.516;2023-04-06T02:54:47;1.70;99.90
7762;DHT22;3925;48.636;9.516;2023-04-06T02:57:16;1.60;99.90
7762;DHT22;3925;48.636;9.516;2023-04-06T02:59:43;1.60;99.90
7762;DHT22;3925;48.636;9.516;2023-04-06T03:02:10;1.40;99.90
7762;DHT22;3925;48.636;9.516;2023-04-06T03:04:37;1.50;99.90
7762;DHT22;3925;48.636;9.516;2023-04-06T03:07:05;1.50;99.90
7762;DHT22;3925;48.636;9.516;2023-04-06T03:09:32;1.40;99.90
7762;DHT22;3925;48.636;9.516;2023-04-06T03:11:59;1.30;99.90
7762;DHT22;3925;48.636;9.516;2023-04-06T03:14:28;1.20;99.90
7762;DHT22;3925;48.636;9.516;2023-04-06T03:16:55;1.10;99.90
7762;DHT22;3925;48.636;9.516;2023-04-06T03:19:22;1.30;99.90
7762;DHT22;3925;48.636;9.516;2023-04-06T03:21:49;1.20;99.90
7762;DHT22;3925;48.636;9.516;2023-04-06T03:24:17;1.20;99.90
7762;DHT22;3925;48.636;9.516;2023-04-06T03:26:44;1.10;99.90
7762;DHT22;3925;48.636;9.516;2023-04-06T03:29:11;1.30;99.90
7762;DHT22;3925;48.636;9.516;2023-04-06T03:31:37;1.30;99.90
7762;DHT22;3925;48.636;9.516;2023-04-06T03:34:04;1.40;99.90
7762;DHT22;3925;48.636;9.516;2023-04-06T03:36:31;1.30;99.90
7762;DHT22;3925;48.636;9.516;2023-04-06T03:38:58;1.30;99.90
7762;DHT22;3925;48.636;9.516;2023-04-06T03:41:27;1.10;99.90
7762;DHT22;3925;48.636;9.516;2023-04-06T03:43:53;1.10;99.90
7762;DHT22;3925;48.636;9.516;2023-04-06T03:46:21;1.00;99.90
7762;DHT22;3925;48.636;9.516;2023-04-06T03:48:48;1.00;99.90
7762;DHT22;3925;48.636;9.516;2023-04-06T03:51:15;0.90;99.90
7762;DHT22;3925;48.636;9.516;2023-04-06T03:53:42;1.10;99.90
7762;DHT22;3925;48.636;9.516;2023-04-06T03:56:09;1.50;99.90
7762;DHT22;3925;48.636;9.516;2023-04-06T03:58:38;1.70;99.90
7762;DHT22;3925;48.636;9.516;2023-04-06T04:01:04;1.90;99.90
7762;DHT22;3925;48.636;9.516;2023-04-06T04:03:31;1.70;99.90
7762;DHT22;3925;48.636;9.516;2023-04-06T04:05:58;1.70;99.90
7762;DHT22;3925;48.636;9.516;2023-04-06T04:08:25;1.80;99.90
7762;DHT22;3925;48.636;9.516;2023-04-06T04:10:52;2.10;99.90
7762;DHT22;3925;48.636;9.516;2023-04-06T04:13:19;2.00;99.90
7762;DHT22;3925;48.636;9.516;2023-04-06T04:15:47;1.70;99.90
7762;DHT22;3925;48.636;9.516;2023-04-06T04:18:14;1.70;99.90
7762;DHT22;3925;48.636;9.516;2023-04-06T04:20:41;1.60;99.90
7762;DHT22;3925;48.636;9.516;2023-04-06T04:23:08;1.50;99.90
7762;DHT22;3925;48.636;9.516;2023-04-06T04:25:35;1.30;99.90
7762;DHT22;3925;48.636;9.516;2023-04-06T04:28:02;1.20;99.90
7762;DHT22;3925;48.636;9.516;2023-04-06T04:30:29;1.00;99.90
7762;DHT22;3925;48.636;9.516;2023-04-06T04:32:58;0.90;99.90
7762;DHT22;3925;48.636;9.516;2023-04-06T04:35:25;0.80;99.90
7762;DHT22;3925;48.636;9.516;2023-04-06T04:37:51;0.70;99.90
7762;DHT22;3925;48.636;9.516;2023-04-06T04:40:18;0.70;99.90
7762;DHT22;3925;48.636;9.516;2023-04-06T04:42:45;0.70;99.90
7762;DHT22;3925;48.636;9.516;2023-04-06T04:45:12;0.70;99.90
7762;DHT22;3925;48.636;9.516;2023-04-06T04:47:39;0.80;99.90
7762;DHT22;3925;48.636;9.516;2023-04-06T04:50:09;0.80;99.90
7762;DHT22;3925;48.636;9.516;2023-04-06T04:52:37;0.90;99.90
7762;DHT22;3925;48.636;9.516;2023-04-06T04:55:05;1.30;99.90
7762;DHT22;3925;48.636;9.516;2023-04-06T04:57:32;1.40;99.90
7762;DHT22;3925;48.636;9.516;2023-04-06T04:59:59;1.60;99.90
7762;DHT22;3925;48.636;9.516;2023-04-06T05:02:27;1.40;99.90
7762;DHT22;3925;48.636;9.516;2023-04-06T05:04:54;1.40;99.90
7762;DHT22;3925;48.636;9.516;2023-04-06T05:07:22;1.50;99.90
7762;DHT22;3925;48.636;9.516;2023-04-06T05:09:49;1.50;99.90
7762;DHT22;3925;48.636;9.516;2023-04-06T05:12:16;1.40;99.90
7762;DHT22;3925;48.636;9.516;2023-04-06T05:14:43;1.50;99.90
7762;DHT22;3925;48.636;9.516;2023-04-06T05:17:10;1.40;99.90
7762;DHT22;3925;48.636;9.516;2023-04-06T05:19:37;1.30;99.90
7762;DHT22;3925;48.636;9.516;2023-04-06T05:22:05;1.40;99.90
7762;DHT22;3925;48.636;9.516;2023-04-06T05:24:33;1.80;99.90
7762;DHT22;3925;48.636;9.516;2023-04-06T05:27:00;1.90;99.90
7762;DHT22;3925;48.636;9.516;2023-04-06T05:29:27;1.90;99.90
7762;DHT22;3925;48.636;9.516;2023-04-06T05:31:54;2.10;99.90
7762;DHT22;3925;48.636;9.516;2023-04-06T05:34:21;2.20;99.90
7762;DHT22;3925;48.636;9.516;2023-04-06T05:36:48;2.50;99.90
7762;DHT22;3925;48.636;9.516;2023-04-06T05:39:16;2.80;99.70
7762;DHT22;3925;48.636;9.516;2023-04-06T05:41:44;3.20;99.00
7762;DHT22;3925;48.636;9.516;2023-04-06T05:44:11;3.60;98.40
7762;DHT22;3925;48.636;9.516;2023-04-06T05:46:38;3.90;98.10
7762;DHT22;3925;48.636;9.516;2023-04-06T05:49:05;4.60;97.10
7762;DHT22;3925;48.636;9.516;2023-04-06T05:51:32;5.90;95.50
7762;DHT22;3925;48.636;9.516;2023-04-06T05:53:59;7.50;93.20
7762;DHT22;3925;48.636;9.516;2023-04-06T05:56:26;8.50;89.80
7762;DHT22;3925;48.636;9.516;2023-04-06T05:58:54;9.80;84.30
7762;DHT22;3925;48.636;9.516;2023-04-06T06:01:21;10.90;75.90
7762;DHT22;3925;48.636;9.516;2023-04-06T06:03:48;12.60;68.50
7762;DHT22;3925;48.636;9.516;2023-04-06T06:06:15;13.40;61.90
7762;DHT22;3925;48.636;9.516;2023-04-06T06:08:42;14.20;59.20
7762;DHT22;3925;48.636;9.516;2023-04-06T06:11:09;15.60;53.50
7762;DHT22;3925;48.636;9.516;2023-04-06T06:13:36;16.60;50.10
7762;DHT22;3925;48.636;9.516;2023-04-06T06:16:04;17.40;48.30
7762;DHT22;3925;48.636;9.516;2023-04-06T06:18:31;16.80;46.20
7762;DHT22;3925;48.636;9.516;2023-04-06T06:20:59;17.60;45.60
7762;DHT22;3925;48.636;9.516;2023-04-06T06:23:26;18.20;43.60
7762;DHT22;3925;48.636;9.516;2023-04-06T06:25:52;19.40;42.10
7762;DHT22;3925;48.636;9.516;2023-04-06T06:28:22;20.10;41.00
7762;DHT22;3925;48.636;9.516;2023-04-06T06:30:50;20.80;38.40
7762;DHT22;3925;48.636;9.516;2023-04-06T06:33:18;21.40;37.60
7762;DHT22;3925;48.636;9.516;2023-04-06T06:35:45;21.70;35.70
7762;DHT22;3925;48.636;9.516;2023-04-06T06:38:12;22.20;34.10
7762;DHT22;3925;48.636;9.516;2023-04-06T06:40:40;22.40;34.10
7762;DHT22;3925;48.636;9.516;2023-04-06T06:43:07;23.00;33.30
7762;DHT22;3925;48.636;9.516;2023-04-06T06:45:34;23.40;31.80
7762;DHT22;3925;48.636;9.516;2023-04-06T06:48:01;23.10;31.50
7762;DHT22;3925;48.636;9.516;2023-04-06T06:50:29;23.60;31.50
7762;DHT22;3925;48.636;9.516;2023-04-06T06:52:56;23.50;31.20
7762;DHT22;3925;48.636;9.516;2023-04-06T06:55:23;23.00;31.30
7762;DHT22;3925;48.636;9.516;2023-04-06T06:57:51;24.00;30.60
7762;DHT22;3925;48.636;9.516;2023-04-06T07:00:18;23.90;30.00
7762;DHT22;3925;48.636;9.516;2023-04-06T07:02:46;24.40;29.50
7762;DHT22;3925;48.636;9.516;2023-04-06T07:05:13;24.30;29.90
7762;DHT22;3925;48.636;9.516;2023-04-06T07:07:42;24.90;29.10
7762;DHT22;3925;48.636;9.516;2023-04-06T07:10:09;26.30;28.00
7762;DHT22;3925;48.636;9.516;2023-04-06T07:12:36;26.10;27.70
7762;DHT22;3925;48.636;9.516;2023-04-06T07:15:04;26.70;26.60
7762;DHT22;3925;48.636;9.516;2023-04-06T07:17:31;27.10;26.00
7762;DHT22;3925;48.636;9.516;2023-04-06T07:19:58;26.80;26.00
7762;DHT22;3925;48.636;9.516;2023-04-06T07:22:25;26.80;26.20
7762;DHT22;3925;48.636;9.516;2023-04-06T07:24:53;28.20;25.10
7762;DHT22;3925;48.636;9.516;2023-04-06T07:27:21;28.20;24.90
7762;DHT22;3925;48.636;9.516;2023-04-06T07:29:48;28.60;24.60
7762;DHT22;3925;48.636;9.516;2023-04-06T07:32:15;29.40;24.40
7762;DHT22;3925;48.636;9.516;2023-04-06T07:34:42;29.70;24.80
7762;DHT22;3925;48.636;9.516;2023-04-06T07:37:10;29.40;24.80
7762;DHT22;3925;48.636;9.516;2023-04-06T07:39:37;30.10;23.60
7762;DHT22;3925;48.636;9.516;2023-04-06T07:42:06;29.90;23.70
7762;DHT22;3925;48.636;9.516;2023-04-06T07:44:33;30.70;22.80
7762;DHT22;3925;48.636;9.516;2023-04-06T07:47:00;30.90;23.40
7762;DHT22;3925;48.636;9.516;2023-04-06T07:49:27;31.30;22.20
7762;DHT22;3925;48.636;9.516;2023-04-06T07:51:54;30.10;22.30
7762;DHT22;3925;48.636;9.516;2023-04-06T07:54:21;31.40;21.80
7762;DHT22;3925;48.636;9.516;2023-04-06T07:56:48;31.30;22.00
7762;DHT22;3925;48.636;9.516;2023-04-06T07:59:16;31.20;22.20
7762;DHT22;3925;48.636;9.516;2023-04-06T08:01:43;31.30;22.40
7762;DHT22;3925;48.636;9.516;2023-04-06T08:04:10;31.70;22.10
7762;DHT22;3925;48.636;9.516;2023-04-06T08:06:37;32.50;21.30
7762;DHT22;3925;48.636;9.516;2023-04-06T08:09:04;32.50;20.20
7762;DHT22;3925;48.636;9.516;2023-04-06T08:11:31;32.60;20.40
7762;DHT22;3925;48.636;9.516;2023-04-06T08:13:58;32.40;19.80
7762;DHT22;3925;48.636;9.516;2023-04-06T08:16:26;31.90;19.80
7762;DHT22;3925;48.636;9.516;2023-04-06T08:18:53;32.20;18.90
7762;DHT22;3925;48.636;9.516;2023-04-06T08:21:20;32.50;18.60
7762;DHT22;3925;48.636;9.516;2023-04-06T08:23:47;32.40;19.10
7762;DHT22;3925;48.636;9.516;2023-04-06T08:26:14;30.30;20.60
7762;DHT22;3925;48.636;9.516;2023-04-06T08:28:41;30.70;21.30
7762;DHT22;3925;48.636;9.516;2023-04-06T08:31:08;31.20;20.50
7762;DHT22;3925;48.636;9.516;2023-04-06T08:33:36;30.70;20.60
7762;DHT22;3925;48.636;9.516;2023-04-06T08:36:09;28.90;21.90
7762;DHT22;3925;48.636;9.516;2023-04-06T08:38:36;29.50;22.40
7762;DHT22;3925;48.636;9.516;2023-04-06T08:41:09;29.30;22.00
7762;DHT22;3925;48.636;9.516;2023-04-06T08:43:42;28.90;22.70
7762;DHT22;3925;48.636;9.516;2023-04-06T08:46:10;30.30;22.50
7762;DHT22;3925;48.636;9.516;2023-04-06T08:48:41;31.50;21.00
7762;DHT22;3925;48.636;9.516;2023-04-06T08:51:08;31.50;21.40
7762;DHT22;3925;48.636;9.516;2023-04-06T08:53:35;31.90;21.50
7762;DHT22;3925;48.636;9.516;2023-04-06T08:56:05;31.90;20.10
7762;DHT22;3925;48.636;9.516;2023-04-06T08:58:35;32.20;19.30
7762;DHT22;3925;48.636;9.516;2023-04-06T09:01:05;31.80;20.50
7762;DHT22;3925;48.636;9.516;2023-04-06T09:03:36;32.00;20.10
7762;DHT22;3925;48.636;9.516;2023-04-06T09:06:05;31.50;21.20
7762;DHT22;3925;48.636;9.516;2023-04-06T09:08:33;32.40;21.10
7762;DHT22;3925;48.636;9.516;2023-04-06T09:11:00;31.10;20.20
7762;DHT22;3925;48.636;9.516;2023-04-06T09:13:27;32.30;20.60
7762;DHT22;3925;48.636;9.516;2023-04-06T09:16:01;32.50;19.10
7762;DHT22;3925;48.636;9.516;2023-04-06T09:18:29;29.40;20.50
7762;DHT22;3925;48.636;9.516;2023-04-06T09:20:58;28.20;22.20
7762;DHT22;3925;48.636;9.516;2023-04-06T09:23:26;28.00;25.10
7762;DHT22;3925;48.636;9.516;2023-04-06T09:26:08;29.60;24.30
7762;DHT22;3925;48.636;9.516;2023-04-06T09:28:42;32.10;21.70
7762;DHT22;3925;48.636;9.516;2023-04-06T09:31:10;32.40;21.10
7762;DHT22;3925;48.636;9.516;2023-04-06T09:33:38;33.30;21.40
7762;DHT22;3925;48.636;9.516;2023-04-06T09:36:06;33.50;20.00
7762;DHT22;3925;48.636;9.516;2023-04-06T09:38:37;33.50;20.40
7762;DHT22;3925;48.636;9.516;2023-04-06T09:41:04;32.80;20.70
7762;DHT22;3925;48.636;9.516;2023-04-06T09:43:31;33.40;20.40
7762;DHT22;3925;48.636;9.516;2023-04-06T09:46:00;34.10;18.80
7762;DHT22;3925;48.636;9.516;2023-04-06T09:48:31;34.40;19.80
7762;DHT22;3925;48.636;9.516;2023-04-06T09:51:03;34.50;19.80
7762;DHT22;3925;48.636;9.516;2023-04-06T09:53:32;32.80;18.50
7762;DHT22;3925;48.636;9.516;2023-04-06T09:56:10;32.10;19.70
7762;DHT22;3925;48.636;9.516;2023-04-06T09:58:40;31.70;20.10
7762;DHT22;3925;48.636;9.516;2023-04-06T10:01:11;29.90;20.20
7762;DHT22;3925;48.636;9.516;2023-04-06T10:03:46;29.00;20.40
7762;DHT22;3925;48.636;9.516;2023-04-06T10:06:20;29.10;21.10
7762;DHT22;3925;48.636;9.516;2023-04-06T10:08:50;28.80;20.30
7762;DHT22;3925;48.636;9.516;2023-04-06T10:11:21;25.50;21.90
7762;DHT22;3925;48.636;9.516;2023-04-06T10:13:48;26.40;23.40
7762;DHT22;3925;48.636;9.516;2023-04-06T10:16:17;25.60;22.80
7762;DHT22;3925;48.636;9.516;2023-04-06T10:18:48;26.40;23.10
7762;DHT22;3925;48.636;9.516;2023-04-06T10:21:20;28.50;23.60
7762;DHT22;3925;48.636;9.516;2023-04-06T10:23:52;30.10;22.10
7762;DHT22;3925;48.636;9.516;2023-04-06T10:26:22;31.40;22.00
7762;DHT22;3925;48.636;9.516;2023-04-06T10:28:49;31.20;20.50
7762;DHT22;3925;48.636;9.516;2023-04-06T10:31:24;31.90;19.60
7762;DHT22;3925;48.636;9.516;2023-04-06T10:33:55;32.30;19.90
7762;DHT22;3925;48.636;9.516;2023-04-06T10:36:24;31.70;19.30
7762;DHT22;3925;48.636;9.516;2023-04-06T10:38:57;30.60;19.20
7762;DHT22;3925;48.636;9.516;2023-04-06T10:41:32;30.00;19.50
7762;DHT22;3925;48.636;9.516;2023-04-06T10:43:59;29.10;20.00
7762;DHT22;3925;48.636;9.516;2023-04-06T10:46:27;30.20;21.00
7762;DHT22;3925;48.636;9.516;2023-04-06T10:48:54;30.90;21.70
7762;DHT22;3925;48.636;9.516;2023-04-06T10:51:25;32.00;21.80
7762;DHT22;3925;48.636;9.516;2023-04-06T10:53:53;33.20;19.70
7762;DHT22;3925;48.636;9.516;2023-04-06T10:56:22;32.70;17.80
7762;DHT22;3925;48.636;9.516;2023-04-06T10:58:54;31.30;20.00
7762;DHT22;3925;48.636;9.516;2023-04-06T11:01:23;31.60;20.20
7762;DHT22;3925;48.636;9.516;2023-04-06T11:03:53;31.20;18.70
7762;DHT22;3925;48.636;9.516;2023-04-06T11:06:22;30.10;20.10
7762;DHT22;3925;48.636;9.516;2023-04-06T11:08:49;30.70;20.90
7762;DHT22;3925;48.636;9.516;2023-04-06T11:11:18;29.40;21.80
7762;DHT22;3925;48.636;9.516;2023-04-06T11:13:46;29.20;22.10
7762;DHT22;3925;48.636;9.516;2023-04-06T11:16:17;29.60;21.80
7762;DHT22;3925;48.636;9.516;2023-04-06T11:18:52;28.60;20.80
7762;DHT22;3925;48.636;9.516;2023-04-06T11:21:31;27.60;20.70
7762;DHT22;3925;48.636;9.516;2023-04-06T11:24:05;25.20;22.50
7762;DHT22;3925;48.636;9.516;2023-04-06T11:26:36;22.90;24.40
7762;DHT22;3925;48.636;9.516;2023-04-06T11:29:03;22.60;27.20
7762;DHT22;3925;48.636;9.516;2023-04-06T11:31:38;21.80;27.70
7762;DHT22;3925;48.636;9.516;2023-04-06T11:34:09;21.80;28.90
7762;DHT22;3925;48.636;9.516;2023-04-06T11:36:40;21.00;28.90
7762;DHT22;3925;48.636;9.516;2023-04-06T11:39:08;20.60;29.30
7762;DHT22;3925;48.636;9.516;2023-04-06T11:41:35;19.40;27.30
7762;DHT22;3925;48.636;9.516;2023-04-06T11:44:02;18.90;28.40
7762;DHT22;3925;48.636;9.516;2023-04-06T11:46:29;18.50;30.50
7762;DHT22;3925;48.636;9.516;2023-04-06T11:49:00;17.90;29.40
7762;DHT22;3925;48.636;9.516;2023-04-06T11:51:27;17.50;30.00
7762;DHT22;3925;48.636;9.516;2023-04-06T11:53:55;16.90;30.70
7762;DHT22;3925;48.636;9.516;2023-04-06T11:56:26;17.30;32.60
7762;DHT22;3925;48.636;9.516;2023-04-06T11:58:55;17.70;31.60
7762;DHT22;3925;48.636;9.516;2023-04-06T12:01:22;17.50;31.70
7762;DHT22;3925;48.636;9.516;2023-04-06T12:03:50;18.00;33.30
7762;DHT22;3925;48.636;9.516;2023-04-06T12:06:18;17.80;32.80
7762;DHT22;3925;48.636;9.516;2023-04-06T12:08:45;17.60;33.40
7762;DHT22;3925;48.636;9.516;2023-04-06T12:11:12;18.00;34.80
7762;DHT22;3925;48.636;9.516;2023-04-06T12:13:39;18.00;31.60
7762;DHT22;3925;48.636;9.516;2023-04-06T12:16:06;18.40;31.00
7762;DHT22;3925;48.636;9.516;2023-04-06T12:18:33;19.00;33.40
7762;DHT22;3925;48.636;9.516;2023-04-06T12:21:00;19.10;31.90
7762;DHT22;3925;48.636;9.516;2023-04-06T12:23:28;19.20;30.00
7762;DHT22;3925;48.636;9.516;2023-04-06T12:25:55;18.00;27.60
7762;DHT22;3925;48.636;9.516;2023-04-06T12:28:22;18.20;30.00
7762;DHT22;3925;48.636;9.516;2023-04-06T12:30:52;18.50;31.20
7762;DHT22;3925;48.636;9.516;2023-04-06T12:33:20;17.90;29.30
7762;DHT22;3925;48.636;9.516;2023-04-06T12:35:47;17.60;32.10
7762;DHT22;3925;48.636;9.516;2023-04-06T12:38:15;17.60;30.80
7762;DHT22;3925;48.636;9.516;2023-04-06T12:40:44;17.40;31.80
7762;DHT22;3925;48.636;9.516;2023-04-06T12:43:11;16.70;30.00
7762;DHT22;3925;48.636;9.516;2023-04-06T12:45:39;16.50;33.10
7762;DHT22;3925;48.636;9.516;2023-04-06T12:48:06;16.50;33.10
7762;DHT22;3925;48.636;9.516;2023-04-06T12:50:33;16.60;30.70
7762;DHT22;3925;48.636;9.516;2023-04-06T12:53:00;16.10;31.50
7762;DHT22;3925;48.636;9.516;2023-04-06T12:55:29;15.50;30.30
7762;DHT22;3925;48.636;9.516;2023-04-06T12:58:01;15.20;31.80
7762;DHT22;3925;48.636;9.516;2023-04-06T13:00:28;15.00;31.80
7762;DHT22;3925;48.636;9.516;2023-04-06T13:02:56;14.80;32.50
7762;DHT22;3925;48.636;9.516;2023-04-06T13:05:23;14.70;33.20
7762;DHT22;3925;48.636;9.516;2023-04-06T13:07:50;15.10;33.30
7762;DHT22;3925;48.636;9.516;2023-04-06T13:10:17;15.10;32.80
7762;DHT22;3925;48.636;9.516;2023-04-06T13:12:44;15.00;32.60
7762;DHT22;3925;48.636;9.516;2023-04-06T13:15:12;15.10;32.60
7762;DHT22;3925;48.636;9.516;2023-04-06T13:17:39;15.10;32.20
7762;DHT22;3925;48.636;9.516;2023-04-06T13:20:07;15.20;31.80
7762;DHT22;3925;48.636;9.516;2023-04-06T13:22:34;15.60;34.10
7762;DHT22;3925;48.636;9.516;2023-04-06T13:25:02;15.60;31.70
7762;DHT22;3925;48.636;9.516;2023-04-06T13:27:28;15.60;32.20
7762;DHT22;3925;48.636;9.516;2023-04-06T13:29:59;15.30;33.00
7762;DHT22;3925;48.636;9.516;2023-04-06T13:32:28;15.60;34.00
7762;DHT22;3925;48.636;9.516;2023-04-06T13:34:55;15.70;33.20
7762;DHT22;3925;48.636;9.516;2023-04-06T13:37:22;15.40;31.50
7762;DHT22;3925;48.636;9.516;2023-04-06T13:39:50;15.20;31.60
7762;DHT22;3925;48.636;9.516;2023-04-06T13:42:17;14.90;31.80
7762;DHT22;3925;48.636;9.516;2023-04-06T13:44:44;15.00;34.10
7762;DHT22;3925;48.636;9.516;2023-04-06T13:47:12;15.30;34.70
7762;DHT22;3925;48.636;9.516;2023-04-06T13:49:42;15.50;34.50
7762;DHT22;3925;48.636;9.516;2023-04-06T13:52:09;15.60;32.20
7762;DHT22;3925;48.636;9.516;2023-04-06T13:54:36;15.90;35.50
7762;DHT22;3925;48.636;9.516;2023-04-06T13:57:03;15.70;31.30
7762;DHT22;3925;48.636;9.516;2023-04-06T13:59:33;15.70;32.20
7762;DHT22;3925;48.636;9.516;2023-04-06T14:02:01;15.60;32.50
7762;DHT22;3925;48.636;9.516;2023-04-06T14:04:28;15.70;32.80
7762;DHT22;3925;48.636;9.516;2023-04-06T14:06:56;15.80;32.80
7762;DHT22;3925;48.636;9.516;2023-04-06T14:09:23;15.60;32.90
7762;DHT22;3925;48.636;9.516;2023-04-06T14:11:50;15.80;34.50
7762;DHT22;3925;48.636;9.516;2023-04-06T14:14:17;15.80;34.10
7762;DHT22;3925;48.636;9.516;2023-04-06T14:16:44;15.50;31.60
7762;DHT22;3925;48.636;9.516;2023-04-06T14:19:12;15.50;30.40
7762;DHT22;3925;48.636;9.516;2023-04-06T14:21:40;15.20;30.00
7762;DHT22;3925;48.636;9.516;2023-04-06T14:24:08;15.20;31.50
7762;DHT22;3925;48.636;9.516;2023-04-06T14:26:35;15.10;31.90
7762;DHT22;3925;48.636;9.516;2023-04-06T14:29:02;15.40;32.30
7762;DHT22;3925;48.636;9.516;2023-04-06T14:31:29;15.40;32.20
7762;DHT22;3925;48.636;9.516;2023-04-06T14:33:57;15.80;35.20
7762;DHT22;3925;48.636;9.516;2023-04-06T14:36:24;15.30;30.90
7762;DHT22;3925;48.636;9.516;2023-04-06T14:38:52;15.30;33.10
7762;DHT22;3925;48.636;9.516;2023-04-06T14:41:21;15.00;31.90
7762;DHT22;3925;48.636;9.516;2023-04-06T14:43:49;15.00;32.60
7762;DHT22;3925;48.636;9.516;2023-04-06T14:46:17;15.40;33.70
7762;DHT22;3925;48.636;9.516;2023-04-06T14:48:44;15.80;34.10
7762;DHT22;3925;48.636;9.516;2023-04-06T14:51:11;15.80;31.80
7762;DHT22;3925;48.636;9.516;2023-04-06T14:53:38;16.00;33.20
7762;DHT22;3925;48.636;9.516;2023-04-06T14:56:06;16.30;32.30
7762;DHT22;3925;48.636;9.516;2023-04-06T14:58:34;16.60;32.30
7762;DHT22;3925;48.636;9.516;2023-04-06T15:01:01;16.70;31.60
7762;DHT22;3925;48.636;9.516;2023-04-06T15:03:29;16.90;32.00
7762;DHT22;3925;48.636;9.516;2023-04-06T15:05:56;17.00;31.00
7762;DHT22;3925;48.636;9.516;2023-04-06T15:08:24;17.00;31.20
7762;DHT22;3925;48.636;9.516;2023-04-06T15:10:51;17.10;30.20
7762;DHT22;3925;48.636;9.516;2023-04-06T15:13:20;16.80;29.80
7762;DHT22;3925;48.636;9.516;2023-04-06T15:15:50;16.60;29.50
7762;DHT22;3925;48.636;9.516;2023-04-06T15:18:18;16.50;30.30
7762;DHT22;3925;48.636;9.516;2023-04-06T15:20:45;16.50;28.60
7762;DHT22;3925;48.636;9.516;2023-04-06T15:23:13;15.80;28.20
7762;DHT22;3925;48.636;9.516;2023-04-06T15:25:39;15.30;28.20
7762;DHT22;3925;48.636;9.516;2023-04-06T15:28:07;15.30;28.90
7762;DHT22;3925;48.636;9.516;2023-04-06T15:30:34;15.30;29.00
7762;DHT22;3925;48.636;9.516;2023-04-06T15:33:04;15.10;28.50
7762;DHT22;3925;48.636;9.516;2023-04-06T15:35:33;14.80;26.90
7762;DHT22;3925;48.636;9.516;2023-04-06T15:38:05;14.90;27.60
7762;DHT22;3925;48.636;9.516;2023-04-06T15:40:32;14.80;29.00
7762;DHT22;3925;48.636;9.516;2023-04-06T15:42:59;14.90;28.20
7762;DHT22;3925;48.636;9.516;2023-04-06T15:45:26;15.00;28.30
7762;DHT22;3925;48.636;9.516;2023-04-06T15:47:53;14.70;28.50
7762;DHT22;3925;48.636;9.516;2023-04-06T15:50:21;14.90;30.10
7762;DHT22;3925;48.636;9.516;2023-04-06T15:52:48;14.90;29.40
7762;DHT22;3925;48.636;9.516;2023-04-06T15:55:15;14.90;30.00
7762;DHT22;3925;48.636;9.516;2023-04-06T15:57:42;15.00;30.30
7762;DHT22;3925;48.636;9.516;2023-04-06T16:00:11;14.70;29.50
7762;DHT22;3925;48.636;9.516;2023-04-06T16:02:38;14.70;30.30
7762;DHT22;3925;48.636;9.516;2023-04-06T16:05:05;14.70;29.50
7762;DHT22;3925;48.636;9.516;2023-04-06T16:07:33;14.60;29.50
7762;DHT22;3925;48.636;9.516;2023-04-06T16:10:00;14.60;30.70